Terminal Aerodrome Forecast
Issued by NWS Columbia, SC

Home | Current Version | Previous Version | Text Only | Print | Product List | Glossary On
Versions: 1 2 3 4 5 6 7 8 9 10 11 12 13 14 15 16 17 18 19 20 21 22 23
000
FTUS42 KCAE 300858 AAA
TAFCAE
TAF AMD
KCAE 300858Z 3009/3106 10007KT P6SM OVC012
      TEMPO 3010/3014 SCT015 BKN025
     FM301500 12007KT P6SM VCSH SCT015 BKN025
     FM302000 13008KT P6SM -SHRA VCTS SCT020CB BKN050
     FM310000 13007KT P6SM VCSH BKN040=

USA.gov is the U.S. government's official web portal to all federal, state and local government web resources and services.